Time;durP1;ratioP1;P1;durP2;ratioP2;P2;SDS_P1;SDS_P2;PMS_P1;PMS_P2;Temp;Humidity;BMP_temperature;BMP_pressure;BME280_temperature;BME280_humidity;BME280_pressure;Samples;Min_cycle;Max_cycle;Signal;HPM_P1;HPM_P2
2021/12/11 00:00:17;;;;;;;;;;;;;;;12.09;51.34;100655.75;5077089;28;20039;-62
2021/12/11 00:02:44;;;;;;;38.25;19.77;;;;;;;11.87;52.02;100662.09;5085866;28;19908;-63
2021/12/11 00:05:13;;;;;;;43.03;22.02;;;;;;;11.90;52.00;100677.13;5083000;28;20036;-63
2021/12/11 00:07:39;;;;;;;46.50;21.83;;;;;;;11.92;51.86;100674.91;5084126;28;20020;-63
2021/12/11 00:10:18;;;;;;;41.00;19.90;;;;;;;12.00;51.87;100676.88;5078477;28;20032;-62
2021/12/11 00:12:51;;;;;;;40.22;20.17;;;;;;;11.99;51.50;100678.00;5076285;28;20085;-61
2021/12/11 00:15:24;;;;;;;42.05;21.80;;;;;;;11.98;51.79;100684.63;5080277;28;20028;-63
2021/12/11 00:17:57;;;;;;;43.55;21.10;;;;;;;12.12;51.63;100690.84;5082209;28;20089;-62
2021/12/11 00:20:27;;;;;;;41.05;20.15;;;;;;;12.02;51.51;100704.03;5086400;28;20063;-65
2021/12/11 00:22:53;;;;;;;43.95;20.73;;;;;;;12.00;51.38;100707.09;5087388;28;20472;-64
2021/12/11 00:25:18;;;;;;;41.60;21.42;;;;;;;12.03;51.65;100709.22;5084804;28;20032;-64
2021/12/11 00:27:49;;;;;;;36.72;20.23;;;;;;;12.04;51.55;100710.03;5084925;28;20074;-62
2021/12/11 00:30:26;;;;;;;40.67;20.65;;;;;;;12.20;51.12;100718.66;5080694;28;20021;-63
2021/12/11 00:33:08;;;;;;;43.67;22.00;;;;;;;12.24;50.87;100723.22;5082560;28;20021;-62
2021/12/11 00:35:35;;;;;;;42.20;20.58;;;;;;;12.08;51.33;100731.06;5079068;28;20017;-63
2021/12/11 00:38:16;;;;;;;41.78;20.65;;;;;;;12.21;51.15;100736.78;5065120;28;20036;-62
2021/12/11 00:40:45;;;;;;;40.95;20.65;;;;;;;12.04;51.30;100746.56;5082963;28;20032;-63
2021/12/11 00:43:16;;;;;;;39.78;19.83;;;;;;;12.06;51.29;100749.81;5081277;28;20021;-62
2021/12/11 00:45:42;;;;;;;44.53;21.60;;;;;;;12.08;51.16;100755.78;5084659;28;20055;-63
2021/12/11 00:48:11;;;;;;;42.65;20.13;;;;;;;12.21;51.46;100758.78;5069708;28;20029;-61
2021/12/11 00:51:00;;;;;;;44.17;22.75;;;;;;;12.56;50.31;100772.66;5071844;28;20027;-63
2021/12/11 00:53:36;;;;;;;40.72;21.38;;;;;;;12.54;50.20;100772.97;5071329;28;20033;-60
2021/12/11 00:56:08;;;;;;;40.60;21.08;;;;;;;12.49;50.17;100768.44;5071695;28;20025;-63
2021/12/11 00:58:37;;;;;;;44.67;21.60;;;;;;;12.54;50.00;100777.69;5071760;28;20031;-62
2021/12/11 01:01:06;;;;;;;46.65;22.50;;;;;;;12.38;50.44;100778.09;5070601;28;20040;-61
2021/12/11 01:03:52;;;;;;;41.63;21.17;;;;;;;12.49;50.40;100784.94;5071209;28;20071;-62
2021/12/11 01:06:40;;;;;;;41.20;19.63;;;;;;;12.52;50.13;100784.28;5070922;28;20104;-61
2021/12/11 01:09:17;;;;;;;37.25;18.80;;;;;;;12.51;50.15;100790.09;5071449;28;20040;-61
2021/12/11 01:11:51;;;;;;;40.55;20.20;;;;;;;12.54;49.99;100794.97;5071709;28;20031;-62
2021/12/11 01:14:35;;;;;;;37.15;19.27;;;;;;;12.56;49.69;100800.16;5071246;28;20033;-63
2021/12/11 01:17:05;;;;;;;40.95;20.95;;;;;;;12.43;50.32;100812.88;5071270;28;20045;-62
2021/12/11 01:19:37;;;;;;;43.33;20.38;;;;;;;12.32;50.53;100821.38;5071135;28;20021;-62
2021/12/11 01:22:11;;;;;;;41.90;21.10;;;;;;;12.36;50.27;100820.75;5070485;28;20029;-63
2021/12/11 01:24:43;;;;;;;43.13;21.08;;;;;;;12.32;50.09;100820.59;5070162;28;20047;-61
2021/12/11 01:27:11;;;;;;;41.60;20.70;;;;;;;12.48;50.25;100824.53;5070050;28;20029;-64
2021/12/11 01:29:37;;;;;;;42.50;20.90;;;;;;;12.36;50.09;100838.09;5070870;28;20024;-62
2021/12/11 01:32:05;;;;;;;42.63;19.77;;;;;;;12.25;50.61;100832.03;5070280;28;20033;-63
2021/12/11 01:34:31;;;;;;;40.70;20.02;;;;;;;12.09;50.95;100834.38;5069832;28;20090;-64
2021/12/11 01:36:57;;;;;;;45.13;20.85;;;;;;;12.11;50.89;100837.59;5070307;28;20092;-62
2021/12/11 01:39:27;;;;;;;42.73;21.40;;;;;;;12.23;50.77;100839.75;5070885;28;20025;-64
2021/12/11 01:41:54;;;;;;;37.30;19.02;;;;;;;12.20;50.64;100842.34;5071099;28;20277;-61
2021/12/11 01:44:29;;;;;;;40.75;20.42;;;;;;;12.45;50.07;100851.84;5054391;28;20029;-61
2021/12/11 01:47:04;;;;;;;42.33;20.70;;;;;;;12.47;49.85;100866.94;5074440;28;20028;-62
2021/12/11 01:49:30;;;;;;;40.30;19.63;;;;;;;12.34;49.95;100873.31;5074639;28;20096;-62
2021/12/11 01:52:12;;;;;;;38.53;19.00;;;;;;;12.40;50.11;100882.25;5075253;28;20025;-64
2021/12/11 01:54:44;;;;;;;37.72;18.38;;;;;;;12.34;50.01;100887.03;5074867;28;20795;-64
2021/12/11 01:57:23;;;;;;;38.33;20.08;;;;;;;12.26;50.24;100880.38;5091062;28;20032;-62
2021/12/11 01:59:57;;;;;;;39.55;19.33;;;;;;;12.23;50.04;100893.94;5075159;28;20025;-62
2021/12/11 02:02:39;;;;;;;41.58;19.55;;;;;;;12.25;50.23;100891.66;5073512;28;20017;-61
2021/12/11 02:05:06;;;;;;;35.45;18.02;;;;;;;12.12;50.54;100899.69;5090677;28;20028;-64
2021/12/11 02:07:39;;;;;;;37.25;19.13;;;;;;;12.12;49.96;100902.44;5073533;28;20025;-63
2021/12/11 02:10:13;;;;;;;40.17;18.50;;;;;;;12.10;50.25;100901.91;5074819;28;20025;-62
2021/12/11 02:12:42;;;;;;;38.30;18.63;;;;;;;12.12;49.97;100902.44;5074472;28;20076;-62
2021/12/11 02:15:17;;;;;;;34.45;18.40;;;;;;;12.05;50.02;100906.75;5074822;28;20115;-63
2021/12/11 02:18:01;;;;;;;40.25;18.67;;;;;;;12.06;50.25;100911.13;5074239;28;20095;-62
2021/12/11 02:20:35;;;;;;;34.10;17.83;;;;;;;12.10;49.99;100912.09;5073319;28;20039;-64
2021/12/11 02:23:03;;;;;;;36.90;18.45;;;;;;;11.97;50.01;100916.53;5090605;28;20028;-61
2021/12/11 02:25:36;;;;;;;38.65;18.83;;;;;;;11.92;50.46;100917.47;5074011;28;20048;-62
2021/12/11 02:28:29;;;;;;;38.60;18.58;;;;;;;12.14;50.22;100930.41;5074840;28;20841;-62
2021/12/11 02:31:04;;;;;;;37.05;19.10;;;;;;;12.04;50.15;100938.91;5074593;28;20024;-62
2021/12/11 02:33:39;;;;;;;41.00;20.50;;;;;;;11.88;50.41;100943.09;5074033;28;20033;-63
2021/12/11 02:36:17;;;;;;;39.63;19.17;;;;;;;11.80;50.92;100948.22;5074357;28;20036;-61
2021/12/11 02:38:51;;;;;;;42.47;19.55;;;;;;;11.96;50.51;100956.13;5073978;28;20051;-63
2021/12/11 02:41:37;;;;;;;42.83;19.92;;;;;;;11.92;50.85;100960.63;5074613;28;20025;-64
2021/12/11 02:44:10;;;;;;;39.05;19.17;;;;;;;11.87;50.61;100952.47;5072201;28;20029;-64
2021/12/11 02:46:47;;;;;;;40.72;18.83;;;;;;;11.94;50.86;100963.88;5073722;28;20043;-63
2021/12/11 02:49:18;;;;;;;38.38;19.08;;;;;;;11.98;50.32;100959.38;5074189;28;20029;-63
2021/12/11 02:51:55;;;;;;;36.75;19.40;;;;;;;11.97;50.42;100966.00;5073799;28;20032;-62
2021/12/11 02:54:36;;;;;;;40.58;19.23;;;;;;;11.98;50.36;100970.38;5073249;28;20058;-63
2021/12/11 02:57:13;;;;;;;40.65;20.02;;;;;;;11.91;50.53;100969.94;5071856;28;20025;-63
2021/12/11 02:59:43;;;;;;;38.33;18.88;;;;;;;11.85;50.72;100968.44;5072709;28;20029;-61
2021/12/11 03:02:13;;;;;;;38.78;18.63;;;;;;;11.88;50.30;100970.56;5074020;28;20017;-62
2021/12/11 03:05:08;;;;;;;38.50;18.27;;;;;;;11.85;50.32;100976.66;5073598;28;20108;-63
2021/12/11 03:07:38;;;;;;;36.45;17.88;;;;;;;11.80;50.16;100981.16;5073333;28;20033;-62
2021/12/11 03:10:10;;;;;;;40.38;18.42;;;;;;;11.81;50.20;100970.97;5073790;28;20031;-62
2021/12/11 03:12:36;;;;;;;38.95;18.05;;;;;;;11.73;50.38;100975.25;5073255;28;20025;-63
2021/12/11 03:15:04;;;;;;;36.70;18.45;;;;;;;11.77;49.92;100981.78;5073579;28;20036;-60
2021/12/11 03:17:30;;;;;;;42.65;19.27;;;;;;;11.32;50.73;100976.09;5072230;28;20064;-62
2021/12/11 03:19:55;;;;;;;39.42;18.50;;;;;;;10.74;53.07;100985.69;5073534;28;20036;-61
2021/12/11 03:22:27;;;;;;;38.83;18.13;;;;;;;11.23;51.65;100991.66;5039649;28;20025;-64
2021/12/11 03:24:53;;;;;;;42.47;19.52;;;;;;;11.34;51.46;100993.09;5073432;28;20049;-62
2021/12/11 03:27:18;;;;;;;44.38;19.88;;;;;;;11.43;51.03;100993.19;5072270;28;20021;-61
2021/12/11 03:29:44;;;;;;;40.05;19.00;;;;;;;11.65;50.45;100995.22;5072162;28;20037;-64
2021/12/11 03:32:12;;;;;;;38.30;19.23;;;;;;;11.60;50.76;100993.38;5072540;28;20063;-60
2021/12/11 03:34:38;;;;;;;37.63;18.60;;;;;;;11.52;50.80;100996.06;5073229;28;20088;-63
2021/12/11 03:37:06;;;;;;;35.83;18.30;;;;;;;11.62;50.76;100996.63;5073321;28;20040;-62
2021/12/11 03:39:37;;;;;;;38.83;18.38;;;;;;;11.74;50.37;100993.38;5072771;28;20029;-63
2021/12/11 03:42:09;;;;;;;33.95;18.05;;;;;;;11.72;50.51;101003.84;5073063;28;20076;-61
2021/12/11 03:44:34;;;;;;;36.45;17.90;;;;;;;11.72;50.37;101012.09;5072891;28;20035;-62
2021/12/11 03:47:07;;;;;;;35.35;17.65;;;;;;;11.69;50.63;101017.38;5072884;28;20029;-62
2021/12/11 03:49:33;;;;;;;35.00;17.85;;;;;;;11.50;51.37;101015.56;5072878;28;20021;-63
2021/12/11 03:51:59;;;;;;;39.70;18.90;;;;;;;11.66;50.83;101023.47;5073414;28;20055;-63
2021/12/11 03:54:29;;;;;;;35.15;17.63;;;;;;;11.51;50.96;101016.38;5072980;28;20084;-61
2021/12/11 03:56:57;;;;;;;35.00;17.33;;;;;;;11.11;51.89;101014.09;5072856;28;20025;-62
2021/12/11 03:59:22;;;;;;;37.53;17.13;;;;;;;11.56;51.41;101019.81;5071732;28;20116;-62
2021/12/11 04:01:52;;;;;;;38.13;17.85;;;;;;;11.64;50.98;101021.03;5038398;28;20025;-63
2021/12/11 04:04:28;;;;;;;32.92;16.42;;;;;;;11.53;51.01;101025.13;5072863;28;20036;-63
2021/12/11 04:06:56;;;;;;;31.55;16.10;;;;;;;11.39;50.95;101023.19;5071201;28;20025;-62
2021/12/11 04:09:22;;;;;;;32.17;17.20;;;;;;;11.65;51.33;101017.19;5072854;28;20606;-62
2021/12/11 04:11:51;;;;;;;35.70;17.13;;;;;;;11.35;51.84;101018.63;5054770;28;20036;-62
2021/12/11 04:14:22;;;;;;;33.50;15.55;;;;;;;11.26;52.31;101021.22;5072789;28;20029;-62
2021/12/11 04:16:48;;;;;;;33.28;17.55;;;;;;;10.51;53.92;101032.13;5087717;28;20128;-64
2021/12/11 04:19:14;;;;;;;35.70;16.30;;;;;;;11.16;52.67;101019.50;5072547;28;20044;-63
2021/12/11 04:21:40;;;;;;;31.67;16.05;;;;;;;10.40;55.02;101022.41;5071221;28;20032;-62
2021/12/11 04:24:09;;;;;;;33.10;16.35;;;;;;;10.14;55.85;101036.47;5071502;28;20025;-64
2021/12/11 04:26:35;;;;;;;34.38;16.35;;;;;;;10.45;54.90;101036.06;5071998;28;20017;-63
2021/12/11 04:29:01;;;;;;;36.38;16.83;;;;;;;11.19;53.38;101040.03;5072335;28;20118;-64
2021/12/11 04:31:31;;;;;;;33.80;15.95;;;;;;;11.46;52.65;101044.75;5071432;28;20033;-63
2021/12/11 04:34:06;;;;;;;35.80;15.75;;;;;;;11.03;53.87;101040.31;5071909;28;20032;-64
2021/12/11 04:36:36;;;;;;;33.13;16.08;;;;;;;11.17;53.48;101028.56;5072362;28;20021;-64
2021/12/11 04:39:06;;;;;;;30.33;15.77;;;;;;;11.20;53.50;101041.69;5072032;28;20043;-64
2021/12/11 04:41:40;;;;;;;31.67;15.48;;;;;;;11.29;53.02;101042.59;5072163;28;20096;-64
2021/12/11 04:44:39;;;;;;;32.38;15.45;;;;;;;11.53;52.81;101047.09;5072187;28;20049;-63
2021/12/11 04:47:18;;;;;;;34.05;14.70;;;;;;;11.30;53.59;101055.19;5072291;28;20096;-62
2021/12/11 04:49:48;;;;;;;33.38;14.65;;;;;;;11.65;52.32;101052.88;5087316;28;20036;-64
2021/12/11 04:52:47;;;;;;;30.48;15.55;;;;;;;11.35;52.91;101057.84;5055177;28;20025;-64
2021/12/11 04:55:27;;;;;;;31.42;14.25;;;;;;;11.04;53.73;101061.16;5071264;28;20064;-62
2021/12/11 04:58:25;;;;;;;30.65;14.82;;;;;;;11.30;53.33;101063.44;5071397;28;20051;-63
2021/12/11 05:11:31;;;;;;;25.00;12.02;;;;;;;11.17;53.15;101069.72;5071858;28;20102;-63
2021/12/11 05:13:57;;;;;;;25.67;12.02;;;;;;;11.44;53.36;101083.47;5055511;28;20024;-62
2021/12/11 05:16:22;;;;;;;25.55;10.90;;;;;;;11.74;53.00;101078.53;5070631;28;20031;-64
2021/12/11 05:18:47;;;;;;;29.58;10.35;;;;;;;11.84;52.27;101083.00;5069564;28;20064;-63
2021/12/11 05:21:18;;;;;;;21.40;10.18;;;;;;;11.61;52.91;101090.31;5053917;28;20659;-63
2021/12/11 05:23:45;;;;;;;25.42;9.60;;;;;;;11.45;53.85;101087.03;5071167;28;20031;-65
2021/12/11 05:26:11;;;;;;;21.13;8.98;;;;;;;11.54;53.59;101084.41;5071488;28;20025;-64
2021/12/11 05:28:36;;;;;;;25.17;8.73;;;;;;;11.82;53.17;101087.16;5071583;28;20021;-61
2021/12/11 05:31:05;;;;;;;16.60;7.55;;;;;;;11.75;52.82;101088.38;5070202;28;20029;-65
2021/12/11 05:33:30;;;;;;;19.00;7.00;;;;;;;11.56;53.50;101093.16;5071299;28;20031;-63
2021/12/11 05:35:56;;;;;;;19.65;6.72;;;;;;;12.02;52.59;101095.00;5070062;28;20049;-64
2021/12/11 05:38:23;;;;;;;18.70;4.97;;;;;;;11.55;53.43;101094.28;5071269;28;20040;-64
2021/12/11 05:40:54;;;;;;;16.65;2.88;;;;;;;11.16;55.62;101098.28;5070977;28;20028;-61
2021/12/11 05:43:20;;;;;;;13.30;1.88;;;;;;;10.95;56.67;101098.59;5071372;28;20134;-64
2021/12/11 05:45:46;;;;;;;7.85;1.60;;;;;;;10.97;56.21;101096.38;5070898;28;20032;-61
2021/12/11 05:48:12;;;;;;;12.25;1.20;;;;;;;9.85;60.98;101110.53;5070367;28;20092;-64
2021/12/11 05:51:01;;;;;;;14.75;1.65;;;;;;;10.62;59.46;101117.75;5053662;28;20033;-63
2021/12/11 05:53:28;;;;;;;11.02;1.75;;;;;;;10.38;59.01;101111.53;5070434;28;20029;-62
2021/12/11 05:55:56;;;;;;;18.08;1.95;;;;;;;10.57;59.12;101108.81;5070801;28;20032;-63
2021/12/11 05:58:36;;;;;;;10.93;1.63;;;;;;;11.13;56.98;101120.81;5053712;28;20105;-62
2021/12/11 06:01:04;;;;;;;8.50;1.60;;;;;;;10.51;59.83;101128.06;5070685;28;20025;-64
2021/12/11 06:03:29;;;;;;;18.67;1.88;;;;;;;10.00;61.37;101134.16;5071142;28;20033;-65
2021/12/11 06:05:58;;;;;;;13.02;1.73;;;;;;;10.51;59.59;101149.16;5070619;28;20032;-63
2021/12/11 06:08:24;;;;;;;12.13;1.38;;;;;;;10.97;59.31;101140.25;5070901;28;20060;-62
2021/12/11 06:10:49;;;;;;;15.98;2.00;;;;;;;10.54;60.13;101148.59;5070554;28;20033;-62
2021/12/11 06:13:16;;;;;;;12.05;1.30;;;;;;;10.73;60.09;101153.28;5070275;28;20055;-63
2021/12/11 06:15:42;;;;;;;12.50;2.08;;;;;;;10.44;60.71;101148.75;5070274;28;20032;-64
2021/12/11 06:18:13;;;;;;;16.00;2.00;;;;;;;10.24;61.62;101164.28;5052745;28;20049;-62
2021/12/11 06:20:39;;;;;;;9.15;1.80;;;;;;;10.21;60.91;101178.56;5070854;28;20060;-64
2021/12/11 06:23:04;;;;;;;17.40;2.10;;;;;;;9.98;62.96;101170.06;5052783;28;20029;-63
2021/12/11 06:25:33;;;;;;;9.20;1.85;;;;;;;10.63;60.94;101179.72;5070992;28;20032;-63
2021/12/11 06:27:58;;;;;;;14.93;1.88;;;;;;;10.92;59.87;101191.66;5070563;28;20028;-65
2021/12/11 06:30:26;;;;;;;15.02;2.22;;;;;;;10.47;61.19;101197.50;5054056;28;20025;-62
2021/12/11 06:32:52;;;;;;;10.75;1.70;;;;;;;10.46;61.49;101201.31;5073171;28;20025;-65
2021/12/11 06:35:28;;;;;;;12.68;1.40;;;;;;;10.71;60.93;101208.41;5073580;28;20032;-62
2021/12/11 06:37:53;;;;;;;9.65;1.45;;;;;;;10.88;59.31;101213.38;5073008;28;20025;-65
2021/12/11 06:40:19;;;;;;;10.82;1.63;;;;;;;10.92;59.39;101216.34;5074462;28;20029;-63
2021/12/11 06:42:45;;;;;;;9.68;1.58;;;;;;;10.53;60.65;101221.00;5073535;28;20040;-61
2021/12/11 06:45:10;;;;;;;12.98;1.80;;;;;;;10.82;60.28;101231.03;5073004;28;20056;-64
2021/12/11 06:47:36;;;;;;;7.82;1.58;;;;;;;10.98;59.80;101237.13;5073280;28;20021;-62
2021/12/11 06:50:04;;;;;;;6.55;1.00;;;;;;;11.02;59.65;101244.47;5073976;28;20028;-63
2021/12/11 06:52:30;;;;;;;6.25;1.10;;;;;;;11.14;58.77;101249.50;5077692;28;20084;-64
2021/12/11 06:54:56;;;;;;;11.50;1.58;;;;;;;11.57;58.10;101257.59;5074115;28;20032;-66
2021/12/11 06:57:22;;;;;;;6.35;1.20;;;;;;;11.38;57.42;101259.56;5081999;28;20028;-61
2021/12/11 06:59:48;;;;;;;9.13;2.10;;;;;;;11.74;56.75;101262.56;5082037;28;20377;-65
2021/12/11 07:02:16;;;;;;;9.18;1.40;;;;;;;11.38;57.54;101268.59;5080662;28;20032;-64
2021/12/11 07:04:42;;;;;;;15.65;2.05;;;;;;;11.61;57.76;101275.13;5080803;28;20488;-62
2021/12/11 07:07:07;;;;;;;8.50;1.83;;;;;;;11.52;57.90;101282.41;5087439;28;20085;-64
2021/12/11 07:09:33;;;;;;;9.88;1.58;;;;;;;11.82;56.90;101291.28;5082242;28;20020;-63
2021/12/11 07:11:59;;;;;;;8.32;1.52;;;;;;;11.96;56.42;101305.06;5062517;28;20024;-63
2021/12/11 07:14:28;;;;;;;12.05;2.05;;;;;;;12.50;55.07;101309.03;5079182;28;20033;-64
2021/12/11 07:16:55;;;;;;;7.57;2.00;;;;;;;12.47;55.08;101311.56;5085658;28;20374;-64
2021/12/11 07:19:21;;;;;;;8.82;2.03;;;;;;;12.23;55.35;101314.47;5076439;28;20032;-62
2021/12/11 07:21:50;;;;;;;15.35;3.25;;;;;;;12.05;55.80;101317.00;5083054;28;20037;-62
2021/12/11 07:24:19;;;;;;;8.55;3.72;;;;;;;11.70;56.62;101330.16;5084734;28;20578;-66
2021/12/11 07:26:45;;;;;;;13.35;3.58;;;;;;;12.27;54.71;101329.28;5084974;28;20048;-65
2021/12/11 07:29:14;;;;;;;11.73;3.50;;;;;;;12.23;54.63;101344.72;5084871;28;20029;-63
2021/12/11 07:31:41;;;;;;;11.88;4.07;;;;;;;12.32;54.77;101353.91;5085426;28;20057;-66
2021/12/11 07:34:07;;;;;;;13.88;4.10;;;;;;;12.41;53.79;101346.59;5085289;28;20027;-64
2021/12/11 07:36:33;;;;;;;10.98;4.30;;;;;;;12.15;54.46;101357.22;5085069;28;20040;-62
2021/12/11 07:39:02;;;;;;;12.68;4.65;;;;;;;12.16;54.26;101358.88;5090216;28;20051;-61
2021/12/11 07:41:28;;;;;;;10.00;4.38;;;;;;;12.21;54.40;101363.47;5092266;28;20055;-67
2021/12/11 07:43:53;;;;;;;15.50;4.95;;;;;;;12.05;54.81;101366.47;5092742;28;20051;-65
2021/12/11 07:46:24;;;;;;;9.40;4.75;;;;;;;11.56;56.25;101376.78;5075345;28;20024;-63
2021/12/11 07:48:50;;;;;;;12.80;4.88;;;;;;;12.12;54.58;101383.38;5093331;28;20039;-64
2021/12/11 07:51:16;;;;;;;13.68;5.20;;;;;;;11.94;54.92;101393.28;5092163;28;20048;-65
2021/12/11 07:53:43;;;;;;;16.90;5.95;;;;;;;11.77;54.77;101402.03;5092705;28;20028;-67
2021/12/11 07:56:09;;;;;;;15.45;5.75;;;;;;;12.07;54.32;101399.13;5092060;28;20025;-65
2021/12/11 07:58:35;;;;;;;14.10;5.68;;;;;;;12.02;54.45;101408.28;5075713;28;20035;-62
2021/12/11 08:01:03;;;;;;;13.00;5.88;;;;;;;12.11;54.13;101417.47;5091815;28;20095;-64
2021/12/11 08:03:29;;;;;;;14.57;6.05;;;;;;;12.09;53.55;101416.97;5092036;28;20028;-63
2021/12/11 08:05:55;;;;;;;13.50;5.35;;;;;;;12.12;54.23;101430.13;5092161;28;20054;-63
2021/12/11 08:08:21;;;;;;;15.15;5.70;;;;;;;12.29;53.29;101434.25;5091409;28;20043;-64
2021/12/11 08:10:51;;;;;;;12.55;5.97;;;;;;;12.36;53.18;101437.44;5075246;28;20059;-66
2021/12/11 08:13:17;;;;;;;17.98;6.43;;;;;;;12.50;52.70;101449.28;5082679;28;20033;-63
2021/12/11 08:15:43;;;;;;;13.18;6.00;;;;;;;12.26;53.47;101454.88;5073521;28;20033;-62
2021/12/11 08:18:10;;;;;;;16.08;6.65;;;;;;;12.35;53.34;101463.28;5072457;28;20087;-64
2021/12/11 08:20:38;;;;;;;13.18;6.18;;;;;;;12.67;52.52;101467.94;5083150;28;20021;-62
2021/12/11 08:23:05;;;;;;;16.02;6.50;;;;;;;12.84;52.22;101464.63;5065929;28;20029;-64
2021/12/11 08:25:32;;;;;;;14.98;6.25;;;;;;;12.68;52.08;101477.03;5083158;28;20025;-63
2021/12/11 08:27:58;;;;;;;;;;;;;;;13.00;51.67;101478.13;5076114;28;20036;-62
2021/12/11 08:30:28;;;;;;;15.02;6.85;;;;;;;12.86;52.26;101478.91;5074665;28;19951;-63
2021/12/11 08:32:53;;;;;;;15.43;7.47;;;;;;;12.97;51.50;101486.97;5075302;28;20035;-63
2021/12/11 08:35:19;;;;;;;16.75;7.78;;;;;;;13.15;50.80;101482.50;5075105;28;20041;-65
2021/12/11 08:37:50;;;;;;;17.92;7.90;;;;;;;12.93;51.73;101491.44;5091062;28;20033;-63
2021/12/11 08:40:23;;;;;;;14.80;7.43;;;;;;;12.94;51.93;101495.84;5090712;28;20043;-63
2021/12/11 08:42:49;;;;;;;23.38;8.80;;;;;;;13.09;51.85;101501.03;5090562;28;20039;-63
2021/12/11 08:45:23;;;;;;;18.02;9.00;;;;;;;13.18;51.52;101501.97;5091165;28;20092;-61
2021/12/11 08:47:53;;;;;;;16.50;8.32;;;;;;;13.20;51.40;101510.75;5082505;28;20020;-64
2021/12/11 08:50:22;;;;;;;21.02;9.10;;;;;;;13.24;51.24;101513.72;5077838;28;20029;-64
2021/12/11 08:52:50;;;;;;;19.23;8.73;;;;;;;13.05;51.63;101520.13;5078237;28;20075;-63
2021/12/11 08:55:20;;;;;;;23.27;8.73;;;;;;;13.50;50.94;101521.50;5081119;28;20032;-64
2021/12/11 08:57:47;;;;;;;20.60;9.68;;;;;;;13.55;50.83;101526.91;5072579;28;20021;-62
2021/12/11 09:00:28;;;;;;;21.30;10.13;;;;;;;13.42;51.31;101520.28;5070096;28;20032;-64
2021/12/11 09:03:07;;;;;;;21.90;9.77;;;;;;;13.33;51.66;101536.72;5071533;28;20024;-62
2021/12/11 09:05:39;;;;;;;18.30;9.27;;;;;;;13.56;51.36;101534.88;5076240;28;20028;-62
2021/12/11 09:08:12;;;;;;;20.55;9.05;;;;;;;13.78;51.38;101541.59;5071658;28;20039;-63
2021/12/11 09:10:48;;;;;;;20.48;8.95;;;;;;;13.86;51.10;101543.63;5076528;28;20088;-63
2021/12/11 09:13:36;;;;;;;23.83;10.82;;;;;;;13.99;51.24;101543.91;5073498;28;20040;-63
2021/12/11 09:16:05;;;;;;;20.05;10.40;;;;;;;13.65;52.22;101551.50;5081779;28;20036;-63
2021/12/11 09:18:37;;;;;;;25.05;11.00;;;;;;;13.57;53.00;101549.47;5072297;28;20041;-61
2021/12/11 09:21:15;;;;;;;22.38;10.52;;;;;;;13.97;52.18;101550.53;5084500;28;20039;-64
2021/12/11 09:23:51;;;;;;;22.60;9.80;;;;;;;14.13;51.35;101552.97;5078144;28;20045;-63
2021/12/11 09:26:24;;;;;;;19.95;9.77;;;;;;;14.17;51.26;101556.72;5077858;28;20072;-63
2021/12/11 09:29:04;;;;;;;21.67;9.90;;;;;;;14.24;51.07;101568.16;5081727;28;20021;-63
2021/12/11 09:31:37;;;;;;;19.38;9.77;;;;;;;14.43;50.61;101575.47;5077190;28;20036;-65
2021/12/11 09:34:10;;;;;;;17.08;9.88;;;;;;;14.45;50.39;101576.78;5080084;28;20028;-62
2021/12/11 09:36:44;;;;;;;18.17;9.68;;;;;;;14.55;50.11;101575.72;5075348;28;20473;-62
2021/12/11 09:39:15;;;;;;;19.80;9.98;;;;;;;14.56;50.80;101582.88;5077232;28;20032;-63
2021/12/11 09:41:40;;;;;;;22.35;10.07;;;;;;;14.60;50.13;101585.84;5076254;28;20084;-60
2021/12/11 09:44:15;;;;;;;23.40;10.20;;;;;;;14.33;50.88;101591.13;5075682;28;20028;-63
2021/12/11 09:46:54;;;;;;;19.52;9.95;;;;;;;14.67;50.55;101587.03;5079664;28;20037;-63
2021/12/11 09:49:25;;;;;;;22.10;10.88;;;;;;;14.51;51.26;101591.28;5078529;28;20029;-62
2021/12/11 09:52:00;;;;;;;26.58;11.68;;;;;;;14.54;51.46;101585.13;5080809;28;20021;-62
2021/12/11 09:54:26;;;;;;;22.48;11.27;;;;;;;14.44;51.94;101591.69;5075107;28;20028;-61
2021/12/11 09:57:14;;;;;;;20.08;11.20;;;;;;;14.88;51.26;101600.34;5073505;28;20037;-63
2021/12/11 09:59:40;;;;;;;22.17;10.65;;;;;;;14.86;50.71;101599.84;5075841;28;20028;-62
2021/12/11 10:02:15;;;;;;;21.10;10.60;;;;;;;15.03;50.46;101596.38;5081946;28;20034;-62
2021/12/11 10:05:36;;;;;;;18.15;10.82;;;;;;;14.96;51.08;101607.06;5076534;28;20033;-63
2021/12/11 10:10:50;;;;;;;;;;;;;;;15.51;49.54;101614.19;5077584;28;20107;-64
2021/12/11 10:13:15;;;;;;;19.77;10.50;;;;;;;15.24;49.44;101627.88;5073453;28;19913;-65
2021/12/11 10:15:41;;;;;;;18.50;10.10;;;;;;;15.38;49.95;101630.56;5074100;28;20041;-63
2021/12/11 10:18:18;;;;;;;22.90;11.20;;;;;;;15.17;49.21;101629.44;5076773;28;20416;-63
2021/12/11 10:20:49;;;;;;;20.05;10.57;;;;;;;14.77;51.61;101643.13;5079031;28;20072;-62
2021/12/11 10:23:18;;;;;;;19.25;9.70;;;;;;;14.81;51.37;101653.25;5086925;28;20032;-64
2021/12/11 10:25:47;;;;;;;19.85;9.88;;;;;;;14.94;50.91;101648.78;5079616;28;20035;-62
2021/12/11 10:28:19;;;;;;;19.92;9.80;;;;;;;15.35;51.14;101647.78;5090148;28;20103;-62
2021/12/11 10:30:53;;;;;;;22.33;10.40;;;;;;;15.85;50.15;101643.97;5079946;28;20017;-63
2021/12/11 10:33:22;;;;;;;19.75;9.80;;;;;;;15.83;50.20;101651.78;5083863;28;20388;-63
2021/12/11 10:35:52;;;;;;;21.02;9.38;;;;;;;16.23;48.33;101648.16;5082020;28;20055;-62
2021/12/11 10:38:18;;;;;;;20.75;9.23;;;;;;;15.94;49.50;101644.00;5076860;28;20028;-63
2021/12/11 10:40:52;;;;;;;15.88;8.02;;;;;;;15.95;48.65;101643.69;5080700;28;20052;-62
2021/12/11 10:43:25;;;;;;;19.17;8.15;;;;;;;15.58;50.10;101644.97;5076754;28;20021;-61
2021/12/11 10:45:52;;;;;;;18.73;7.00;;;;;;;15.65;49.23;101642.53;5076822;28;20021;-63
2021/12/11 10:48:25;;;;;;;15.27;7.25;;;;;;;15.31;50.18;101657.81;5078113;28;20076;-64
2021/12/11 10:50:55;;;;;;;15.60;7.40;;;;;;;16.06;48.90;101660.78;5078936;28;20151;-64
2021/12/11 10:53:23;;;;;;;21.70;8.10;;;;;;;16.19;49.34;101664.56;5082607;28;20021;-63
2021/12/11 10:55:51;;;;;;;18.80;7.80;;;;;;;17.45;47.54;101663.94;5080413;28;20024;-62
2021/12/11 10:58:22;;;;;;;18.35;7.82;;;;;;;17.76;46.63;101669.25;5080273;28;20024;-64
2021/12/11 11:01:29;;;;;;;15.05;6.60;;;;;;;18.06;44.99;101658.22;5080243;28;20025;-62
2021/12/11 11:03:59;;;;;;;14.38;6.00;;;;;;;18.32;44.81;101666.38;5011456;28;20161;-62
2021/12/11 11:06:25;;;;;;;12.40;5.95;;;;;;;17.17;45.56;101675.44;5070264;28;20063;-61
2021/12/11 11:08:52;;;;;;;14.85;6.20;;;;;;;16.88;46.24;101662.22;5080697;28;20021;-63
2021/12/11 11:11:21;;;;;;;14.93;5.50;;;;;;;16.67;46.92;101673.91;5074770;28;20017;-62
2021/12/11 11:13:47;;;;;;;12.63;5.40;;;;;;;16.53;46.53;101678.78;5077316;28;20025;-62
2021/12/11 11:16:14;;;;;;;17.17;6.28;;;;;;;16.34;47.70;101682.69;5081318;28;20024;-62
2021/12/11 11:18:39;;;;;;;16.83;6.05;;;;;;;16.97;46.67;101680.50;5074775;28;20056;-63
2021/12/11 11:21:14;;;;;;;11.75;5.68;;;;;;;16.59;47.25;101683.03;5081489;28;20059;-64
2021/12/11 11:23:41;;;;;;;14.23;5.70;;;;;;;16.17;48.05;101688.97;5079804;28;20047;-63
2021/12/11 11:26:11;;;;;;;15.10;5.70;;;;;;;16.18;47.89;101687.00;5076216;28;20029;-61
2021/12/11 11:28:37;;;;;;;16.73;5.53;;;;;;;15.89;48.55;101682.84;5077134;28;20042;-62
2021/12/11 11:31:17;;;;;;;19.52;5.93;;;;;;;15.53;50.32;101692.09;5074940;28;20032;-63
2021/12/11 11:33:44;;;;;;;11.80;4.30;;;;;;;15.69;49.51;101698.84;5079440;28;20021;-62
2021/12/11 11:36:16;;;;;;;10.40;4.60;;;;;;;16.56;47.36;101705.81;5075657;28;20064;-62
2021/12/11 11:38:46;;;;;;;11.93;4.05;;;;;;;16.54;47.26;101700.63;5075248;28;20452;-61
2021/12/11 11:41:19;;;;;;;13.07;4.15;;;;;;;16.28;48.25;101700.56;5077650;28;20025;-65
2021/12/11 11:43:46;;;;;;;17.50;4.07;;;;;;;16.65;47.33;101707.47;5078482;28;20079;-63